createdAt,value
2022-08-22T00:00:17.620Z,99479.12
2022-08-22T00:01:31.318Z,99471.67
2022-08-22T00:02:38.840Z,99476.67
2022-08-22T00:02:45.269Z,99515.34
2022-08-22T00:02:59.131Z,99484.44
2022-08-22T00:03:06.628Z,99494.61
2022-08-22T00:03:52.332Z,99476.41
2022-08-22T00:05:04.683Z,99476.41
2022-08-22T00:06:26.160Z,99474.17
2022-08-22T00:08:04.651Z,99479.45
2022-08-22T00:09:20.085Z,99480.38
2022-08-22T00:10:33.441Z,99473.71
2022-08-22T00:11:54.236Z,99475.78
2022-08-22T00:13:12.158Z,99483.27
2022-08-22T00:14:24.566Z,99475.10
2022-08-22T00:15:42.522Z,99473.17
2022-08-22T00:16:38.504Z,99474.56
2022-08-22T00:17:56.419Z,99468.33
2022-08-22T00:19:19.774Z,99471.39
2022-08-22T00:20:35.037Z,99470.25
2022-08-22T00:21:43.854Z,99472.72
2022-08-22T00:22:52.335Z,99467.72
2022-08-22T00:24:07.001Z,99474.67
2022-08-22T00:25:46.559Z,99471.89
2022-08-22T00:27:00.765Z,99469.40
2022-08-22T00:28:28.441Z,99473.28
2022-08-22T00:29:43.562Z,99466.08
2022-08-22T00:30:53.688Z,99473.60
2022-08-22T00:32:11.708Z,99473.06
2022-08-22T00:33:29.638Z,99469.72
2022-08-22T00:34:41.388Z,99479.16
2022-08-22T00:35:47.041Z,99475.84
2022-08-22T00:36:55.959Z,99478.88
2022-08-22T00:38:17.405Z,99477.45
2022-08-22T00:39:42.877Z,99475.35
2022-08-22T00:41:07.021Z,99474.53
2022-08-22T00:42:29.544Z,99471.61
2022-08-22T00:43:35.713Z,99476.77
2022-08-22T00:44:58.140Z,99472.32
2022-08-22T00:46:21.898Z,99468.16
2022-08-22T00:47:30.723Z,99472.57
2022-08-22T00:48:57.959Z,99476.42
2022-08-22T00:50:37.243Z,99467.55
2022-08-22T00:51:51.789Z,99472.88
2022-08-22T00:53:20.514Z,99479.11
2022-08-22T00:54:35.373Z,99478.97
2022-08-22T00:55:45.167Z,99484.48
2022-08-22T00:57:17.090Z,99482.04
2022-08-22T00:58:31.917Z,99478.88
2022-08-22T00:59:48.320Z,99484.33
2022-08-22T01:00:57.442Z,99482.55
2022-08-22T01:02:29.483Z,99489.08
2022-08-22T01:03:38.022Z,99492.42
2022-08-22T01:04:44.288Z,99486.05
2022-08-22T01:06:22.067Z,99488.29
2022-08-22T01:07:55.376Z,99486.19
2022-08-22T01:09:30.060Z,99492.42
2022-08-22T01:10:53.614Z,99494.17
2022-08-22T01:12:15.826Z,99497.91
2022-08-22T01:13:39.090Z,99489.89
2022-08-22T01:14:50.681Z,99487.36
2022-08-22T01:15:57.536Z,99495.59
2022-08-22T01:17:03.685Z,99495.31
2022-08-22T01:18:44.250Z,99490.50
2022-08-22T01:20:11.751Z,99499.80
2022-08-22T01:21:40.385Z,99492.71
2022-08-22T01:23:02.812Z,99494.95
2022-08-22T01:24:24.224Z,99490.64
2022-08-22T01:25:49.937Z,99492.95
2022-08-22T01:27:02.930Z,99487.68
2022-08-22T01:28:08.804Z,99487.40
2022-08-22T01:29:36.430Z,99491.85
2022-08-22T01:31:01.241Z,99483.94
2022-08-22T01:32:33.314Z,99483.80
2022-08-22T01:34:05.189Z,99480.20
2022-08-22T01:35:25.109Z,99493.39
2022-08-22T01:38:01.192Z,99489.43
2022-08-22T01:39:15.714Z,99483.55
2022-08-22T01:40:37.533Z,99492.03
2022-08-22T01:42:19.513Z,99491.89
2022-08-22T01:43:58.575Z,99499.38
2022-08-22T01:45:06.127Z,99494.70
2022-08-22T01:46:27.626Z,99494.02
2022-08-22T01:47:48.596Z,99491.37
2022-08-22T01:48:57.327Z,99491.37
2022-08-22T01:51:29.697Z,99494.70
2022-08-22T01:52:47.554Z,99489.84
2022-08-22T01:54:02.550Z,99487.31
2022-08-22T01:55:24.930Z,99488.98
2022-08-22T01:56:37.011Z,99495.94
2022-08-22T01:57:55.751Z,99483.47
2022-08-22T01:59:01.938Z,99490.91
2022-08-22T02:00:08.242Z,99489.77
2022-08-22T02:01:29.178Z,99490.28
2022-08-22T02:02:57.984Z,99489.59
2022-08-22T02:04:06.451Z,99500.36
2022-08-22T02:05:27.117Z,99498.47
2022-08-22T02:06:50.911Z,99498.19
2022-08-22T02:08:24.440Z,99495.55
2022-08-22T02:09:40.084Z,99491.95
2022-08-22T02:10:49.116Z,99495.31
2022-08-22T02:11:57.998Z,99497.95
2022-08-22T02:13:03.969Z,99498.09
2022-08-22T02:14:34.050Z,99496.05
2022-08-22T02:15:43.904Z,99492.59
2022-08-22T02:16:55.568Z,99496.32
2022-08-22T02:18:01.357Z,99499.78
2022-08-22T02:19:13.246Z,99492.97
2022-08-22T02:20:45.898Z,99501.59
2022-08-22T02:21:54.848Z,99502.55
2022-08-22T02:23:21.289Z,99495.41
2022-08-22T02:24:36.229Z,99500.68
2022-08-22T02:25:57.194Z,99503.89
2022-08-22T02:27:06.136Z,99495.20
2022-08-22T02:28:11.957Z,99500.03
2022-08-22T02:29:17.700Z,99497.39
2022-08-22T02:30:50.013Z,99504.34
2022-08-22T02:31:55.700Z,99492.84
2022-08-22T02:33:07.373Z,99500.75
2022-08-22T02:34:29.334Z,99497.39
2022-08-22T02:36:51.310Z,99493.42
2022-08-22T02:38:15.497Z,99502.94
2022-08-22T02:39:24.249Z,99491.41
2022-08-22T02:40:39.133Z,99494.69
2022-08-22T02:41:47.782Z,99504.44
2022-08-22T02:42:54.032Z,99502.44
2022-08-22T02:44:15.000Z,99503.98
2022-08-22T02:45:23.464Z,99506.37
2022-08-22T02:46:39.744Z,99506.53
2022-08-22T02:49:15.324Z,99504.25
2022-08-22T02:50:34.738Z,99507.47
2022-08-22T02:51:53.286Z,99510.11
2022-08-22T02:53:10.906Z,99509.02
2022-08-22T02:54:23.958Z,99511.25
2022-08-22T02:55:44.261Z,99512.09
2022-08-22T02:57:02.233Z,99512.61
2022-08-22T02:58:10.935Z,99512.47
2022-08-22T02:59:28.252Z,99518.00
2022-08-22T03:00:34.469Z,99519.55
2022-08-22T03:01:41.158Z,99528.64
2022-08-22T03:02:57.636Z,99524.59
2022-08-22T03:04:33.815Z,99526.51
2022-08-22T03:05:39.574Z,99524.55
2022-08-22T03:06:44.927Z,99524.76
2022-08-22T03:07:56.406Z,99526.44
2022-08-22T03:09:10.065Z,99517.58
2022-08-22T03:10:21.962Z,99517.81
2022-08-22T03:11:27.742Z,99519.28
2022-08-22T03:12:47.999Z,99518.11
2022-08-22T03:14:00.099Z,99511.75
2022-08-22T03:15:09.019Z,99516.20
2022-08-22T03:16:34.524Z,99515.02
2022-08-22T03:17:39.939Z,99519.33
2022-08-22T03:18:48.945Z,99521.46
2022-08-22T03:19:57.172Z,99517.88
2022-08-22T03:21:18.597Z,99511.88
2022-08-22T03:22:49.696Z,99515.98
2022-08-22T03:24:07.550Z,99513.34
2022-08-22T03:25:23.608Z,99521.97
2022-08-22T03:26:47.593Z,99518.61
2022-08-22T03:27:56.481Z,99517.44
2022-08-22T03:29:11.388Z,99522.48
2022-08-22T03:30:20.817Z,99521.10
2022-08-22T03:31:25.436Z,99520.15
2022-08-22T03:32:47.912Z,99528.87
2022-08-22T03:34:16.485Z,99537.72
2022-08-22T03:35:25.403Z,99539.98
2022-08-22T03:36:29.288Z,99541.89
2022-08-22T03:37:35.056Z,99546.89
2022-08-22T03:39:01.069Z,99545.94
2022-08-22T03:40:07.003Z,99547.62
2022-08-22T03:41:29.668Z,99544.03
2022-08-22T03:43:05.405Z,99547.62
2022-08-22T03:44:40.217Z,99557.88
2022-08-22T03:46:09.135Z,99555.28
2022-08-22T03:47:28.914Z,99552.78
2022-08-22T03:48:46.765Z,99558.28
2022-08-22T03:50:01.455Z,99559.83
2022-08-22T03:51:39.031Z,99557.78
2022-08-22T03:53:16.241Z,99561.50
2022-08-22T03:54:37.781Z,99555.15
2022-08-22T03:55:46.921Z,99559.20
2022-08-22T03:57:00.473Z,99556.06
2022-08-22T03:58:32.542Z,99553.06
2022-08-22T03:59:54.955Z,99562.01
2022-08-22T04:01:02.075Z,99558.55
2022-08-22T04:02:42.309Z,99556.16
2022-08-22T04:03:43.111Z,99553.38
2022-08-22T04:05:05.235Z,99561.88
2022-08-22T04:06:42.449Z,99562.52
2022-08-22T04:08:06.186Z,99561.55
2022-08-22T04:09:13.960Z,99558.09
2022-08-22T04:10:51.929Z,99565.86
2022-08-22T04:12:14.293Z,99563.81
2022-08-22T04:13:28.738Z,99562.52
2022-08-22T04:14:54.213Z,99561.79
2022-08-22T04:16:09.728Z,99560.01
2022-08-22T04:17:18.221Z,99559.64
2022-08-22T04:18:38.962Z,99562.27
2022-08-22T04:20:12.216Z,99558.78
2022-08-22T04:21:29.084Z,99552.06
2022-08-22T04:22:50.098Z,99554.91
2022-08-22T04:24:18.927Z,99553.95
2022-08-22T04:25:42.147Z,99559.37
2022-08-22T04:27:18.072Z,99567.41
2022-08-22T04:28:34.540Z,99568.58
2022-08-22T04:29:46.564Z,99569.04
2022-08-22T04:30:55.169Z,99569.04
2022-08-22T04:32:12.818Z,99568.80
2022-08-22T04:33:43.716Z,99572.20
2022-08-22T04:35:02.783Z,99568.02
2022-08-22T04:36:08.725Z,99566.19
2022-08-22T04:37:29.282Z,99569.84
2022-08-22T04:38:41.377Z,99584.59
2022-08-22T04:39:53.177Z,99576.45
2022-08-22T04:41:04.721Z,99588.30
2022-08-22T04:42:32.399Z,99585.45
2022-08-22T04:43:37.245Z,99586.03
2022-08-22T04:44:58.336Z,99587.34
2022-08-22T04:46:36.638Z,99581.41
2022-08-22T04:47:57.914Z,99589.59
2022-08-22T04:49:16.031Z,99588.22
2022-08-22T04:50:45.084Z,99583.33
2022-08-22T04:52:12.279Z,99589.18
2022-08-22T04:53:35.055Z,99586.17
2022-08-22T04:55:14.330Z,99586.44
2022-08-22T04:56:50.638Z,99589.66
2022-08-22T04:58:13.843Z,99587.13
2022-08-22T04:59:18.110Z,99591.30
2022-08-22T05:00:21.111Z,99585.45
2022-08-22T05:01:40.686Z,99593.36
2022-08-22T05:02:49.779Z,99585.77
2022-08-22T05:04:02.152Z,99584.18
2022-08-22T05:05:13.619Z,99590.99
2022-08-22T05:06:17.515Z,99586.98
2022-08-22T05:07:23.167Z,99589.82
2022-08-22T05:08:28.501Z,99586.22
2022-08-22T05:09:34.054Z,99587.38
2022-08-22T05:10:41.537Z,99586.80
2022-08-22T05:11:46.934Z,99590.02
2022-08-22T05:12:52.698Z,99589.30
2022-08-22T05:13:58.304Z,99585.70
2022-08-22T05:15:07.281Z,99585.98
2022-08-22T05:16:15.657Z,99586.47
2022-08-22T05:17:21.521Z,99591.05
2022-08-22T05:18:29.618Z,99597.29
2022-08-22T05:19:34.924Z,99597.53
2022-08-22T05:20:41.640Z,99602.13
2022-08-22T05:21:46.808Z,99600.58
2022-08-22T05:22:56.250Z,99599.48
2022-08-22T05:24:02.594Z,99592.67
2022-08-22T05:25:11.348Z,99600.58
2022-08-22T05:26:17.061Z,99599.48
2022-08-22T05:27:32.786Z,99591.09
2022-08-22T05:28:38.491Z,99597.09
2022-08-22T05:29:44.305Z,99596.13
2022-08-22T05:30:48.907Z,99602.80
2022-08-22T05:32:07.782Z,99606.88
2022-08-22T05:33:27.925Z,99602.80
2022-08-22T05:34:33.756Z,99600.89
2022-08-22T05:35:47.196Z,99604.55
2022-08-22T05:36:56.339Z,99603.06
2022-08-22T05:37:59.538Z,99597.16
2022-08-22T05:39:11.401Z,99590.64
2022-08-22T05:40:26.885Z,99598.99
2022-08-22T05:41:33.823Z,99600.28
2022-08-22T05:42:37.133Z,99595.30
2022-08-22T05:43:42.646Z,99593.38
2022-08-22T05:44:45.643Z,99602.97
2022-08-22T05:45:49.070Z,99603.11
2022-08-22T05:46:55.386Z,99588.38
2022-08-22T05:48:04.397Z,99601.28
2022-08-22T05:49:09.950Z,99607.28
2022-08-22T05:50:18.855Z,99602.43
2022-08-22T05:51:27.298Z,99609.95
2022-08-22T05:52:39.346Z,99610.17
2022-08-22T05:53:45.022Z,99606.85
2022-08-22T05:54:53.608Z,99613.84
2022-08-22T05:56:22.776Z,99600.66
2022-08-22T05:57:30.482Z,99604.44
2022-08-22T05:58:42.133Z,99596.94
2022-08-22T05:59:47.821Z,99594.74
2022-08-22T06:00:54.152Z,99606.41
2022-08-22T06:02:24.459Z,99602.53
2022-08-22T06:03:33.045Z,99603.37
2022-08-22T06:04:50.784Z,99607.02
2022-08-22T06:05:56.568Z,99612.16
2022-08-22T06:07:11.418Z,99609.22
2022-08-22T06:08:21.419Z,99603.93
2022-08-22T06:09:36.093Z,99605.34
2022-08-22T06:10:48.439Z,99609.55
2022-08-22T06:12:00.975Z,99607.31
2022-08-22T06:13:13.803Z,99607.05
2022-08-22T06:14:39.858Z,99605.64
2022-08-22T06:15:53.080Z,99600.08
2022-08-22T06:16:59.353Z,99599.81
2022-08-22T06:18:05.222Z,99602.31
2022-08-22T06:19:19.015Z,99602.87
2022-08-22T06:20:17.706Z,99599.92
2022-08-22T06:21:34.965Z,99600.62
2022-08-22T06:22:37.595Z,99597.02
2022-08-22T06:23:49.508Z,99600.36
2022-08-22T06:24:54.305Z,99601.45
2022-08-22T06:26:00.614Z,99606.47
2022-08-22T06:27:09.679Z,99608.83
2022-08-22T06:28:16.089Z,99601.76
2022-08-22T06:29:22.297Z,99610.36
2022-08-22T06:30:27.866Z,99606.08
2022-08-22T06:33:12.364Z,99601.89
2022-08-22T06:34:28.879Z,99603.43
2022-08-22T06:35:34.924Z,99602.16
2022-08-22T06:36:40.577Z,99605.11
2022-08-22T06:37:47.326Z,99606.75
2022-08-22T06:39:13.452Z,99596.17
2022-08-22T06:40:17.905Z,99593.96
2022-08-22T06:41:22.965Z,99591.98
2022-08-22T06:42:28.824Z,99608.70
2022-08-22T06:43:37.471Z,99599.48
2022-08-22T06:45:01.329Z,99599.47
2022-08-22T06:46:06.105Z,99599.45
2022-08-22T06:47:11.843Z,99589.95
2022-08-22T06:48:20.389Z,99603.31
2022-08-22T06:49:25.386Z,99600.27
2022-08-22T06:50:34.828Z,99589.37
2022-08-22T06:51:39.537Z,99595.80
2022-08-22T06:53:03.059Z,99600.78
2022-08-22T06:54:09.103Z,99596.96
2022-08-22T06:55:12.109Z,99591.46
2022-08-22T06:57:46.050Z,99588.14
2022-08-22T06:58:52.482Z,99588.05
2022-08-22T06:59:57.406Z,99593.56
2022-08-22T07:01:04.050Z,99592.30
2022-08-22T07:02:28.396Z,99591.33
2022-08-22T07:03:34.191Z,99594.64
2022-08-22T07:04:37.483Z,99590.03
2022-08-22T07:05:41.886Z,99596.53
2022-08-22T07:06:47.804Z,99586.81
2022-08-22T07:07:51.322Z,99595.83
2022-08-22T07:08:55.220Z,99590.69
2022-08-22T07:09:57.579Z,99588.33
2022-08-22T07:11:15.668Z,99590.84
2022-08-22T07:12:21.084Z,99590.84
2022-08-22T07:13:25.705Z,99589.27
2022-08-22T07:14:43.488Z,99587.70
2022-08-22T07:15:52.192Z,99589.05
2022-08-22T07:16:58.139Z,99587.77
2022-08-22T07:18:03.917Z,99590.37
2022-08-22T07:19:06.855Z,99588.34
2022-08-22T07:20:12.803Z,99593.56
2022-08-22T07:21:24.509Z,99588.51
2022-08-22T07:22:30.177Z,99586.91
2022-08-22T07:23:37.022Z,99582.34
2022-08-22T07:24:43.179Z,99589.55
2022-08-22T07:26:01.794Z,99583.84
2022-08-22T07:27:19.585Z,99585.23
2022-08-22T07:28:50.804Z,99580.88
2022-08-22T07:29:58.189Z,99587.62
2022-08-22T07:31:04.381Z,99583.19
2022-08-22T07:32:20.529Z,99575.69
2022-08-22T07:33:27.262Z,99573.42
2022-08-22T07:34:54.152Z,99579.91
2022-08-22T07:36:02.574Z,99574.13
2022-08-22T07:37:17.147Z,99572.73
2022-08-22T07:38:41.108Z,99578.31
2022-08-22T07:40:02.258Z,99574.64
2022-08-22T07:41:11.317Z,99576.19
2022-08-22T07:42:16.904Z,99577.17
2022-08-22T07:43:22.588Z,99573.66
2022-08-22T07:44:28.350Z,99573.99
2022-08-22T07:45:41.236Z,99577.17
2022-08-22T07:46:53.159Z,99573.30
2022-08-22T07:48:25.060Z,99576.55
2022-08-22T07:49:25.928Z,99575.24
2022-08-22T07:50:31.950Z,99573.99
2022-08-22T07:51:37.737Z,99570.65
2022-08-22T07:52:45.385Z,99571.34
2022-08-22T07:54:01.362Z,99565.61
2022-08-22T07:55:11.148Z,99564.36
2022-08-22T07:56:27.695Z,99562.39
2022-08-22T07:57:33.427Z,99562.39
2022-08-22T07:58:38.796Z,99566.55
2022-08-22T07:59:51.489Z,99564.42
2022-08-22T08:00:54.853Z,99563.73
2022-08-22T08:02:00.596Z,99566.09
2022-08-22T08:03:06.472Z,99564.25
2022-08-22T08:04:13.527Z,99565.46
2022-08-22T08:05:17.192Z,99560.80
2022-08-22T08:06:22.780Z,99560.50
2022-08-22T08:07:27.720Z,99571.42
2022-08-22T08:08:33.499Z,99567.48
2022-08-22T08:09:42.329Z,99566.63
2022-08-22T08:10:46.937Z,99571.83
2022-08-22T08:11:53.298Z,99567.55
2022-08-22T08:13:02.993Z,99569.95
2022-08-22T08:14:09.205Z,99570.64
2022-08-22T08:15:18.597Z,99567.69
2022-08-22T08:16:26.719Z,99570.75
2022-08-22T08:17:34.093Z,99572.08
2022-08-22T08:18:39.103Z,99566.77
2022-08-22T08:19:44.166Z,99565.95
2022-08-22T08:20:56.494Z,99575.72
2022-08-22T08:21:59.128Z,99568.44
2022-08-22T08:23:04.432Z,99560.80
2022-08-22T08:24:10.572Z,99561.00
2022-08-22T08:25:16.983Z,99563.83
2022-08-22T08:26:36.244Z,99569.82
2022-08-22T08:27:39.370Z,99571.14
2022-08-22T08:28:48.015Z,99566.53
2022-08-22T08:29:53.827Z,99573.03
2022-08-22T08:30:59.769Z,99570.18
2022-08-22T08:32:05.374Z,99573.15
2022-08-22T08:33:24.228Z,99571.84
2022-08-22T08:34:23.662Z,99565.17
2022-08-22T08:35:29.121Z,99564.50
2022-08-22T08:36:40.908Z,99574.31
2022-08-22T08:37:46.820Z,99562.53
2022-08-22T08:39:07.827Z,99563.84
2022-08-22T08:40:29.009Z,99568.51
2022-08-22T08:41:41.030Z,99562.88
2022-08-22T08:42:53.091Z,99568.20
2022-08-22T08:44:15.918Z,99560.73
2022-08-22T08:45:24.473Z,99564.55
2022-08-22T08:46:55.853Z,99569.20
2022-08-22T08:48:15.458Z,99573.87
2022-08-22T08:49:30.842Z,99574.37
2022-08-22T08:50:49.949Z,99568.39
2022-08-22T08:52:28.997Z,99573.70
2022-08-22T08:53:48.699Z,99571.87
2022-08-22T08:55:19.714Z,99577.23
2022-08-22T08:56:40.263Z,99571.24
2022-08-22T08:57:51.375Z,99575.25
2022-08-22T08:59:10.010Z,99575.39
2022-08-22T09:00:15.455Z,99575.56
2022-08-22T09:01:38.221Z,99572.59
2022-08-22T09:03:06.454Z,99572.73
2022-08-22T09:04:15.417Z,99573.58
2022-08-22T09:05:37.629Z,99573.86
2022-08-22T09:07:12.426Z,99564.25
2022-08-22T09:08:44.240Z,99572.86
2022-08-22T09:10:09.840Z,99575.20
2022-08-22T09:11:28.617Z,99574.21
2022-08-22T09:12:56.226Z,99576.20
2022-08-22T09:14:23.441Z,99569.56
2022-08-22T09:15:37.539Z,99569.58
2022-08-22T09:17:18.901Z,99567.42
2022-08-22T09:18:44.843Z,99581.22
2022-08-22T09:20:15.461Z,99565.75
2022-08-22T09:22:57.921Z,99563.59
2022-08-22T09:33:15.433Z,99560.20
2022-08-22T09:34:30.310Z,99568.53
2022-08-22T09:35:55.806Z,99566.89
2022-08-22T09:37:17.831Z,99565.70
2022-08-22T09:38:32.669Z,99567.88
2022-08-22T09:39:50.368Z,99570.53
2022-08-22T09:40:15.554Z,99559.44
2022-08-22T09:41:25.573Z,99558.83
2022-08-22T09:42:44.932Z,99560.16
2022-08-22T09:43:58.802Z,99559.80
2022-08-22T09:45:32.065Z,99558.83
2022-08-22T09:46:56.237Z,99556.04
2022-08-22T09:48:11.229Z,99560.50
2022-08-22T09:49:17.551Z,99556.45
2022-08-22T09:50:37.188Z,99559.59
2022-08-22T09:51:53.540Z,99554.75
2022-08-22T09:53:23.841Z,99551.58
2022-08-22T09:54:38.826Z,99555.39
2022-08-22T09:55:57.941Z,99551.09
2022-08-22T09:57:19.040Z,99556.91
2022-08-22T09:58:41.655Z,99549.55
2022-08-22T09:59:49.441Z,99546.33
2022-08-22T10:01:19.162Z,99551.66
2022-08-22T10:02:52.026Z,99544.33
2022-08-22T10:04:19.638Z,99551.42
2022-08-22T10:05:43.906Z,99553.53
2022-08-22T10:06:45.890Z,99553.00
2022-08-22T10:08:06.748Z,99552.52
2022-08-22T10:09:31.407Z,99550.86
2022-08-22T10:10:50.940Z,99549.20
2022-08-22T10:12:06.098Z,99544.05
2022-08-22T10:13:25.806Z,99548.23
2022-08-22T10:14:31.494Z,99543.57
2022-08-22T10:15:43.347Z,99546.00
2022-08-22T10:16:52.225Z,99545.11
2022-08-22T10:18:19.026Z,99545.05
2022-08-22T10:21:20.929Z,99542.52
2022-08-22T10:22:49.831Z,99542.61
2022-08-22T10:23:55.714Z,99544.56
2022-08-22T10:25:36.689Z,99541.17
2022-08-22T10:26:47.277Z,99547.48
2022-08-22T10:28:03.539Z,99545.41
2022-08-22T10:29:29.774Z,99533.72
2022-08-22T10:30:41.998Z,99544.95
2022-08-22T10:31:59.283Z,99542.56
2022-08-22T10:33:14.118Z,99548.83
2022-08-22T10:34:25.693Z,99546.70
2022-08-22T10:35:35.827Z,99545.81
2022-08-22T10:36:58.784Z,99546.00
2022-08-22T10:38:16.409Z,99543.59
2022-08-22T10:39:25.729Z,99548.94
2022-08-22T10:40:34.345Z,99547.03
2022-08-22T10:41:56.981Z,99546.94
2022-08-22T10:43:09.476Z,99544.37
2022-08-22T10:44:18.474Z,99543.63
2022-08-22T10:45:36.726Z,99544.24
2022-08-22T10:46:53.730Z,99542.78
2022-08-22T10:48:01.315Z,99550.07
2022-08-22T10:49:08.216Z,99543.06
2022-08-22T10:50:22.134Z,99547.78
2022-08-22T10:51:34.736Z,99542.44
2022-08-22T10:52:48.471Z,99540.59
2022-08-22T10:54:03.833Z,99541.86
2022-08-22T10:55:18.558Z,99547.30
2022-08-22T10:56:38.235Z,99550.80
2022-08-22T10:57:58.345Z,99550.14
2022-08-22T10:59:30.059Z,99550.59
2022-08-22T11:00:46.111Z,99557.95
2022-08-22T11:01:53.448Z,99549.80
2022-08-22T11:03:10.966Z,99559.77
2022-08-22T11:04:28.357Z,99550.38
2022-08-22T11:05:35.702Z,99555.15
2022-08-22T11:06:47.497Z,99554.81
2022-08-22T11:08:02.889Z,99548.45
2022-08-22T11:09:28.255Z,99552.48
2022-08-22T11:11:08.146Z,99555.09
2022-08-22T11:12:35.085Z,99548.53
2022-08-22T11:13:56.095Z,99548.61
2022-08-22T11:15:08.337Z,99552.23
2022-08-22T11:16:20.862Z,99547.72
2022-08-22T11:18:00.538Z,99552.79
2022-08-22T11:19:15.081Z,99556.81
2022-08-22T11:20:27.388Z,99555.55
2022-08-22T11:21:45.346Z,99551.25
2022-08-22T11:23:03.703Z,99559.44
2022-08-22T11:24:17.390Z,99559.69
2022-08-22T11:25:35.951Z,99561.49
2022-08-22T11:26:57.339Z,99559.26
2022-08-22T11:28:26.168Z,99565.19
2022-08-22T11:29:41.214Z,99559.19
2022-08-22T11:31:00.381Z,99557.59
2022-08-22T11:32:20.976Z,99560.95
2022-08-22T11:33:46.216Z,99561.94
2022-08-22T11:34:58.530Z,99568.75
2022-08-22T11:36:10.065Z,99559.73
2022-08-22T11:37:47.740Z,99564.06
2022-08-22T11:39:13.730Z,99558.27
2022-08-22T11:40:18.507Z,99559.36
2022-08-22T11:41:27.077Z,99563.50
2022-08-22T11:42:47.793Z,99552.50
2022-08-22T11:43:52.330Z,99550.92
2022-08-22T11:45:00.986Z,99547.34
2022-08-22T11:46:20.791Z,99554.42
2022-08-22T11:47:29.402Z,99559.80
2022-08-22T11:48:38.277Z,99556.47
2022-08-22T11:49:48.122Z,99549.88
2022-08-22T11:50:57.208Z,99550.74
2022-08-22T11:52:12.293Z,99558.03
2022-08-22T11:53:36.915Z,99548.97
2022-08-22T11:54:59.693Z,99550.91
2022-08-22T11:56:27.178Z,99554.13
2022-08-22T11:57:35.648Z,99557.02
2022-08-22T11:58:44.496Z,99555.05
2022-08-22T12:00:08.636Z,99551.37
2022-08-22T12:01:17.419Z,99551.94
2022-08-22T12:02:47.594Z,99555.74
2022-08-22T12:04:10.150Z,99558.33
2022-08-22T12:05:24.478Z,99559.84
2022-08-22T12:06:48.544Z,99559.78
2022-08-22T12:08:04.327Z,99561.22
2022-08-22T12:09:42.574Z,99559.64
2022-08-22T12:10:54.311Z,99559.24
2022-08-22T12:12:00.427Z,99558.66
2022-08-22T12:13:38.449Z,99560.92
2022-08-22T12:15:00.686Z,99560.31
2022-08-22T12:16:09.722Z,99563.18
2022-08-22T12:17:28.547Z,99557.20
2022-08-22T12:18:26.197Z,99558.89
2022-08-22T12:20:12.855Z,99562.92
2022-08-22T12:20:56.374Z,99557.55
2022-08-22T12:22:05.970Z,99558.01
2022-08-22T12:23:43.170Z,99559.27
2022-08-22T12:24:45.802Z,99554.50
2022-08-22T12:26:03.662Z,99556.98
2022-08-22T12:27:35.797Z,99558.03
2022-08-22T12:28:41.594Z,99564.67
2022-08-22T12:29:57.242Z,99559.72
2022-08-22T12:31:13.326Z,99568.00
2022-08-22T12:32:43.828Z,99563.03
2022-08-22T12:34:06.573Z,99557.26
2022-08-22T12:35:38.686Z,99571.52
2022-08-22T12:36:45.678Z,99564.48
2022-08-22T12:37:56.469Z,99563.23
2022-08-22T12:39:25.222Z,99560.13
2022-08-22T12:40:34.738Z,99558.27
2022-08-22T12:41:59.769Z,99556.83
2022-08-22T12:43:23.784Z,99554.77
2022-08-22T12:44:46.230Z,99569.23
2022-08-22T12:46:13.182Z,99564.27
2022-08-22T12:47:42.318Z,99560.75
2022-08-22T12:48:47.696Z,99557.66
2022-08-22T12:49:56.460Z,99561.78
2022-08-22T12:51:38.073Z,99561.38
2022-08-22T12:52:48.451Z,99563.40
2022-08-22T12:54:18.011Z,99568.37
2022-08-22T12:55:39.144Z,99561.75
2022-08-22T12:57:10.602Z,99554.30
2022-08-22T12:58:43.070Z,99555.98
2022-08-22T12:59:49.854Z,99560.95
2022-08-22T13:00:55.809Z,99561.37
2022-08-22T13:02:02.775Z,99555.80
2022-08-22T13:03:14.788Z,99560.55
2022-08-22T13:04:32.497Z,99560.13
2022-08-22T13:05:28.985Z,99556.99
2022-08-22T13:06:41.611Z,99567.16
2022-08-22T13:07:49.064Z,99561.74
2022-08-22T13:08:53.883Z,99556.77
2022-08-22T13:10:08.835Z,99554.89
2022-08-22T13:11:22.716Z,99569.18
2022-08-22T13:12:22.368Z,99562.50
2022-08-22T13:13:31.709Z,99561.91
2022-08-22T13:14:35.592Z,99570.14
2022-08-22T13:15:46.249Z,99569.23
2022-08-22T13:16:53.889Z,99565.66
2022-08-22T13:18:13.251Z,99565.36
2022-08-22T13:19:13.534Z,99558.75
2022-08-22T13:20:33.060Z,99562.41
2022-08-22T13:21:42.519Z,99562.06
2022-08-22T13:22:45.908Z,99567.47
2022-08-22T13:23:51.733Z,99560.98
2022-08-22T13:25:09.552Z,99563.22
2022-08-22T13:26:32.100Z,99566.14
2022-08-22T13:29:09.049Z,99566.16
2022-08-22T13:29:59.978Z,99560.67
2022-08-22T13:31:04.371Z,99556.16
2022-08-22T13:32:11.031Z,99561.39
2022-08-22T13:33:17.804Z,99563.84
2022-08-22T13:34:23.794Z,99566.08
2022-08-22T13:35:35.538Z,99572.16
2022-08-22T13:36:46.209Z,99571.52
2022-08-22T13:37:53.773Z,99566.53
2022-08-22T13:38:59.596Z,99570.74
2022-08-22T13:40:11.261Z,99572.91
2022-08-22T13:41:31.925Z,99577.09
2022-08-22T13:42:40.154Z,99572.48
2022-08-22T13:44:05.917Z,99573.42
2022-08-22T13:45:12.716Z,99571.82
2022-08-22T13:46:19.216Z,99575.73
2022-08-22T13:47:24.701Z,99574.59
2022-08-22T13:48:31.421Z,99575.92
2022-08-22T13:49:40.898Z,99568.38
2022-08-22T13:51:08.068Z,99570.88
2022-08-22T13:52:29.111Z,99579.42
2022-08-22T13:53:49.903Z,99574.27
2022-08-22T13:55:00.995Z,99578.38
2022-08-22T13:56:15.548Z,99572.84
2022-08-22T13:57:29.252Z,99577.48
2022-08-22T13:58:42.807Z,99578.39
2022-08-22T14:00:06.203Z,99578.13
2022-08-22T14:01:39.788Z,99583.77
2022-08-22T14:03:05.719Z,99574.03
2022-08-22T14:04:26.666Z,99590.16
2022-08-22T14:05:23.990Z,99588.77
2022-08-22T14:06:50.487Z,99593.27
2022-08-22T14:08:14.290Z,99589.47
2022-08-22T14:09:29.299Z,99587.30
2022-08-22T14:10:30.430Z,99583.77
2022-08-22T14:11:48.818Z,99589.23
2022-08-22T14:13:00.721Z,99584.73
2022-08-22T14:14:06.413Z,99589.34
2022-08-22T14:15:11.809Z,99591.49
2022-08-22T14:17:43.579Z,99590.94
2022-08-22T14:18:50.971Z,99597.33
2022-08-22T14:20:31.963Z,99595.16
2022-08-22T14:21:48.889Z,99592.28
2022-08-22T14:22:58.933Z,99590.94
2022-08-22T14:24:02.871Z,99592.86
2022-08-22T14:25:08.885Z,99590.08
2022-08-22T14:26:32.799Z,99591.86
2022-08-22T14:27:41.092Z,99592.42
2022-08-22T14:28:45.250Z,99591.25
2022-08-22T14:29:53.767Z,99584.56
2022-08-22T14:31:02.613Z,99587.39
2022-08-22T14:32:14.308Z,99592.70
2022-08-22T14:33:21.402Z,99582.84
2022-08-22T14:34:27.147Z,99586.60
2022-08-22T14:35:35.204Z,99589.66
2022-08-22T14:36:46.592Z,99590.23
2022-08-22T14:37:52.862Z,99586.15
2022-08-22T14:39:02.073Z,99588.03
2022-08-22T14:40:14.538Z,99590.28
2022-08-22T14:41:26.363Z,99584.43
2022-08-22T14:42:50.440Z,99584.65
2022-08-22T14:43:59.854Z,99594.41
2022-08-22T14:45:09.232Z,99583.84
2022-08-22T14:46:16.052Z,99592.05
2022-08-22T14:47:54.498Z,99587.48
2022-08-22T14:48:41.476Z,99591.00
2022-08-22T14:49:56.812Z,99596.52
2022-08-22T14:51:03.892Z,99598.45
2022-08-22T14:52:19.690Z,99598.11
2022-08-22T14:53:25.306Z,99594.39
2022-08-22T14:54:30.309Z,99595.97
2022-08-22T14:55:32.992Z,99594.11
2022-08-22T14:56:37.322Z,99603.58
2022-08-22T14:57:52.982Z,99599.09
2022-08-22T14:59:14.834Z,99605.67